createdAt,value
2022-11-22T00:00:50.535Z,15.63
2022-11-22T00:03:16.796Z,15.60
2022-11-22T00:05:43.006Z,14.93
2022-11-22T00:08:09.510Z,15.37
2022-11-22T00:10:35.898Z,15.23
2022-11-22T00:13:02.555Z,13.63
2022-11-22T00:15:29.637Z,15.00
2022-11-22T00:17:55.870Z,13.53
2022-11-22T00:20:22.311Z,13.80
2022-11-22T00:22:48.556Z,14.03
2022-11-22T00:25:15.002Z,13.90
2022-11-22T00:27:41.483Z,14.33
2022-11-22T00:30:08.154Z,14.00
2022-11-22T00:32:34.454Z,14.30
2022-11-22T00:35:00.727Z,14.23
2022-11-22T00:37:27.995Z,14.37
2022-11-22T00:39:54.252Z,14.30
2022-11-22T00:42:20.490Z,15.37
2022-11-22T00:44:46.751Z,15.37
2022-11-22T00:47:13.154Z,15.43
2022-11-22T00:49:39.373Z,14.53
2022-11-22T00:52:05.637Z,15.30
2022-11-22T00:54:31.847Z,16.37
2022-11-22T00:56:58.199Z,14.77
2022-11-22T00:59:24.411Z,16.93
2022-11-22T01:01:50.631Z,16.13
2022-11-22T01:04:17.030Z,16.13
2022-11-22T01:06:43.247Z,16.07
2022-11-22T01:09:09.982Z,15.03
2022-11-22T01:11:36.199Z,16.80
2022-11-22T01:14:02.436Z,16.40
2022-11-22T01:16:28.692Z,16.37
2022-11-22T01:18:54.943Z,16.00
2022-11-22T01:21:21.164Z,16.40
2022-11-22T01:23:47.397Z,15.67
2022-11-22T01:26:13.837Z,16.57
2022-11-22T01:28:40.051Z,16.20
2022-11-22T01:31:06.266Z,16.30
2022-11-22T01:33:32.621Z,16.73
2022-11-22T01:35:58.835Z,16.13
2022-11-22T01:38:25.359Z,16.37
2022-11-22T01:40:51.749Z,16.97
2022-11-22T01:43:19.623Z,14.70
2022-11-22T01:45:47.062Z,16.87
2022-11-22T01:48:17.797Z,15.50
2022-11-22T01:50:46.729Z,15.40
2022-11-22T01:53:15.733Z,16.00
2022-11-22T01:55:42.203Z,15.60
2022-11-22T01:58:09.574Z,15.27
2022-11-22T02:00:36.818Z,16.00
2022-11-22T02:03:04.403Z,16.47
2022-11-22T02:05:32.780Z,15.97
2022-11-22T02:08:00.533Z,16.13
2022-11-22T02:10:27.739Z,15.60
2022-11-22T02:12:55.694Z,15.17
2022-11-22T02:15:21.905Z,15.80
2022-11-22T02:17:48.169Z,15.27
2022-11-22T02:20:17.066Z,15.97
2022-11-22T02:23:06.848Z,17.07
2022-11-22T02:25:37.563Z,16.87
2022-11-22T02:28:04.543Z,17.70
2022-11-22T02:30:30.763Z,16.73
2022-11-22T02:32:57.041Z,16.67
2022-11-22T02:35:24.962Z,16.03
2022-11-22T02:37:58.862Z,16.77
2022-11-22T02:40:26.408Z,15.00
2022-11-22T02:42:55.437Z,15.93
2022-11-22T02:45:21.665Z,15.37
2022-11-22T02:47:47.889Z,15.87
2022-11-22T02:50:14.261Z,16.07
2022-11-22T02:52:40.554Z,15.83
2022-11-22T02:55:07.000Z,16.07
2022-11-22T02:57:33.265Z,16.37
2022-11-22T02:59:59.485Z,15.13
2022-11-22T03:02:25.724Z,15.27
2022-11-22T03:04:51.993Z,15.67
2022-11-22T03:07:18.379Z,16.40
2022-11-22T03:09:44.736Z,15.97
2022-11-22T03:12:10.980Z,15.37
2022-11-22T03:14:37.217Z,15.27
2022-11-22T03:17:03.439Z,15.47
2022-11-22T03:19:29.806Z,16.10
2022-11-22T03:21:56.240Z,16.47
2022-11-22T03:24:22.489Z,16.73
2022-11-22T03:26:49.504Z,16.10
2022-11-22T03:29:16.616Z,16.10
2022-11-22T03:31:42.866Z,15.37
2022-11-22T03:34:10.910Z,15.57
2022-11-22T03:36:37.131Z,16.07
2022-11-22T03:39:03.655Z,16.67
2022-11-22T03:41:29.965Z,16.13
2022-11-22T03:43:56.180Z,17.80
2022-11-22T03:46:22.377Z,17.00
2022-11-22T03:48:48.582Z,16.53
2022-11-22T03:51:14.819Z,17.17
2022-11-22T03:53:41.240Z,16.40
2022-11-22T03:56:08.376Z,16.93
2022-11-22T03:58:34.667Z,17.73
2022-11-22T04:01:01.271Z,16.70
2022-11-22T04:03:27.756Z,17.43
2022-11-22T04:05:54.139Z,15.70
2022-11-22T04:08:20.368Z,16.43
2022-11-22T04:10:48.027Z,16.63
2022-11-22T04:13:14.592Z,16.43
2022-11-22T04:15:40.873Z,16.83
2022-11-22T04:18:09.267Z,16.93
2022-11-22T04:20:53.986Z,17.60
2022-11-22T04:23:21.197Z,17.13
2022-11-22T04:25:48.758Z,17.87
2022-11-22T04:28:16.290Z,17.63
2022-11-22T04:31:01.608Z,17.07
2022-11-22T04:33:28.307Z,17.00
2022-11-22T04:35:54.810Z,18.23
2022-11-22T04:38:21.352Z,18.60
2022-11-22T04:40:47.791Z,17.60
2022-11-22T04:43:45.878Z,17.63
2022-11-22T04:46:12.789Z,18.03
2022-11-22T04:48:39.147Z,18.27
2022-11-22T04:51:24.490Z,19.03
2022-11-22T04:53:50.767Z,17.87
2022-11-22T04:56:17.053Z,19.30
2022-11-22T04:58:43.601Z,18.97
2022-11-22T05:01:10.142Z,19.10
2022-11-22T05:03:36.486Z,17.70
2022-11-22T05:06:03.583Z,19.80
2022-11-22T05:08:29.974Z,19.17
2022-11-22T05:11:02.165Z,19.80
2022-11-22T05:13:31.594Z,18.40
2022-11-22T05:15:58.459Z,19.17
2022-11-22T05:18:25.454Z,19.93
2022-11-22T05:20:52.101Z,19.33
2022-11-22T05:23:37.483Z,21.03
2022-11-22T05:26:04.086Z,19.23
2022-11-22T05:28:31.738Z,19.23
2022-11-22T05:30:58.046Z,20.27
2022-11-22T05:33:24.301Z,19.80
2022-11-22T05:35:50.719Z,20.03
2022-11-22T05:38:16.975Z,18.67
2022-11-22T05:40:43.183Z,20.43
2022-11-22T05:43:09.463Z,20.60
2022-11-22T05:45:35.675Z,20.10
2022-11-22T05:48:01.887Z,21.60
2022-11-22T05:50:28.353Z,21.17
2022-11-22T05:52:54.855Z,20.63
2022-11-22T05:55:21.071Z,20.13
2022-11-22T05:57:47.299Z,20.40
2022-11-22T06:00:13.695Z,20.40
2022-11-22T06:02:40.047Z,20.03
2022-11-22T06:05:06.443Z,20.43
2022-11-22T06:07:32.818Z,21.47
2022-11-22T06:09:59.092Z,20.30
2022-11-22T06:12:25.313Z,20.53
2022-11-22T06:14:51.542Z,19.63
2022-11-22T06:17:17.771Z,20.77
2022-11-22T06:19:44.257Z,21.03
2022-11-22T06:22:10.480Z,20.97
2022-11-22T06:24:36.745Z,20.70
2022-11-22T06:27:03.001Z,20.60
2022-11-22T06:29:29.757Z,21.17
2022-11-22T06:32:00.419Z,20.57
2022-11-22T06:34:29.715Z,20.43
2022-11-22T06:36:55.926Z,21.07
2022-11-22T06:39:22.145Z,20.40
2022-11-22T06:41:48.352Z,20.17
2022-11-22T06:44:14.997Z,20.60
2022-11-22T06:46:41.218Z,20.70
2022-11-22T06:49:07.454Z,20.67
2022-11-22T06:51:33.738Z,21.17
2022-11-22T06:54:00.033Z,20.50
2022-11-22T06:56:27.951Z,20.60
2022-11-22T06:58:54.465Z,21.77
2022-11-22T07:01:28.153Z,20.27
2022-11-22T07:03:57.993Z,19.67
2022-11-22T07:06:25.594Z,21.00
2022-11-22T07:08:52.241Z,21.27
2022-11-22T07:11:19.678Z,21.63
2022-11-22T07:13:46.626Z,19.53
2022-11-22T07:16:16.097Z,20.33
2022-11-22T07:18:42.442Z,21.23
2022-11-22T07:21:13.482Z,20.83
2022-11-22T07:23:40.945Z,19.57
2022-11-22T07:26:07.189Z,21.70
2022-11-22T07:28:33.416Z,21.13
2022-11-22T07:31:00.548Z,19.37
2022-11-22T07:33:26.933Z,19.57
2022-11-22T07:35:53.190Z,20.47
2022-11-22T07:38:19.507Z,20.20
2022-11-22T07:40:45.746Z,19.30
2022-11-22T07:43:11.999Z,20.10
2022-11-22T07:45:38.266Z,21.27
2022-11-22T07:48:04.625Z,20.33
2022-11-22T07:50:31.420Z,19.67
2022-11-22T07:52:58.357Z,20.93
2022-11-22T07:55:25.452Z,21.40
2022-11-22T07:57:52.347Z,18.80
2022-11-22T08:00:19.001Z,20.37
2022-11-22T08:02:45.940Z,20.70
2022-11-22T08:05:12.236Z,21.37
2022-11-22T08:07:38.529Z,20.80
2022-11-22T08:10:04.985Z,19.50
2022-11-22T08:12:31.186Z,19.53
2022-11-22T08:14:57.472Z,20.37
2022-11-22T08:17:23.786Z,20.40
2022-11-22T08:19:53.369Z,20.50
2022-11-22T08:22:19.651Z,20.87
2022-11-22T08:24:45.890Z,19.93
2022-11-22T08:27:12.098Z,19.47
2022-11-22T08:29:38.318Z,20.53
2022-11-22T08:32:04.703Z,20.07
2022-11-22T08:34:30.923Z,19.20
2022-11-22T08:36:57.194Z,21.33
2022-11-22T08:39:23.401Z,20.10
2022-11-22T08:41:49.610Z,20.03
2022-11-22T08:44:15.821Z,20.20
2022-11-22T08:46:42.025Z,20.57
2022-11-22T08:49:10.445Z,20.30
2022-11-22T08:51:36.979Z,20.67
2022-11-22T08:54:03.243Z,20.30
2022-11-22T08:56:29.455Z,21.03
2022-11-22T08:58:55.718Z,20.03
2022-11-22T09:01:23.319Z,21.30
2022-11-22T09:03:49.751Z,21.77
2022-11-22T09:09:29.915Z,20.50
2022-11-22T09:11:50.190Z,21.27
2022-11-22T09:14:16.426Z,20.73
2022-11-22T09:16:42.697Z,21.63
2022-11-22T09:19:09.162Z,19.90
2022-11-22T09:21:35.465Z,20.93
2022-11-22T09:24:01.818Z,20.73
2022-11-22T09:26:29.203Z,21.00
2022-11-22T09:28:56.522Z,21.13
2022-11-22T09:31:23.617Z,21.70
2022-11-22T09:33:50.347Z,20.20
2022-11-22T09:36:17.617Z,19.67
2022-11-22T09:38:43.904Z,19.60
2022-11-22T09:41:16.392Z,20.80
2022-11-22T09:43:58.482Z,20.57
2022-11-22T09:46:31.611Z,22.47
2022-11-22T09:49:05.366Z,21.33
2022-11-22T09:51:38.224Z,20.60
2022-11-22T09:54:12.793Z,21.87
2022-11-22T09:56:39.775Z,21.87
2022-11-22T09:59:18.464Z,21.20
2022-11-22T10:01:48.942Z,21.30
2022-11-22T10:04:24.761Z,20.53
2022-11-22T10:06:56.144Z,21.37
2022-11-22T10:09:30.743Z,20.53
2022-11-22T10:12:00.716Z,21.23
2022-11-22T10:14:34.579Z,22.30
2022-11-22T10:17:00.789Z,21.93
2022-11-22T10:19:34.753Z,21.00
2022-11-22T10:22:01.075Z,20.40
2022-11-22T10:24:28.311Z,20.83
2022-11-22T10:26:57.434Z,21.67
2022-11-22T10:29:34.056Z,20.73
2022-11-22T10:32:00.455Z,21.73
2022-11-22T10:34:38.797Z,22.00
2022-11-22T10:37:24.367Z,21.60
2022-11-22T10:40:11.974Z,20.67
2022-11-22T10:42:58.522Z,21.57
2022-11-22T10:45:30.955Z,21.10
2022-11-22T10:48:04.786Z,21.63
2022-11-22T10:50:49.629Z,20.33
2022-11-22T10:53:18.931Z,20.23
2022-11-22T10:55:50.112Z,20.90
2022-11-22T10:58:36.330Z,21.00
2022-11-22T11:01:22.754Z,19.93
2022-11-22T11:03:51.484Z,21.13
2022-11-22T11:06:26.568Z,21.50
2022-11-22T11:10:03.004Z,20.23
2022-11-22T11:11:56.343Z,22.13
2022-11-22T11:14:34.471Z,21.03
2022-11-22T11:17:01.035Z,21.43
2022-11-22T11:19:30.645Z,21.20
2022-11-22T11:22:01.062Z,20.63
2022-11-22T11:24:29.185Z,21.17
2022-11-22T11:26:56.426Z,20.97
2022-11-22T11:29:36.119Z,21.00
2022-11-22T11:32:05.608Z,20.47
2022-11-22T11:34:32.705Z,19.80
2022-11-22T11:37:02.074Z,20.57
2022-11-22T11:39:29.803Z,21.03
2022-11-22T11:41:56.387Z,21.23
2022-11-22T11:44:37.766Z,20.40
2022-11-22T11:47:04.493Z,20.60
2022-11-22T11:49:32.152Z,20.53
2022-11-22T11:51:59.853Z,21.10
2022-11-22T11:54:39.605Z,21.80
2022-11-22T11:57:09.590Z,20.13
2022-11-22T11:59:38.965Z,22.73
2022-11-22T12:02:11.084Z,20.20
2022-11-22T12:04:46.082Z,20.30
2022-11-22T12:07:27.077Z,20.40
2022-11-22T12:09:54.310Z,20.60
2022-11-22T12:13:04.035Z,20.60
2022-11-22T12:15:35.263Z,19.43
2022-11-22T12:18:06.986Z,20.80
2022-11-22T12:20:46.353Z,21.00
2022-11-22T12:23:32.392Z,19.47
2022-11-22T12:25:58.958Z,20.43
2022-11-22T12:28:27.316Z,22.00
2022-11-22T12:30:55.564Z,21.80
2022-11-22T12:33:25.736Z,19.80
2022-11-22T12:35:54.725Z,22.10
2022-11-22T12:38:25.884Z,20.80
2022-11-22T12:40:54.184Z,20.77
2022-11-22T12:43:33.495Z,20.60
2022-11-22T12:46:04.294Z,21.53
2022-11-22T12:48:34.603Z,20.83
2022-11-22T12:51:07.378Z,21.10
2022-11-22T12:53:35.930Z,20.97
2022-11-22T12:56:20.714Z,21.13
2022-11-22T12:58:53.097Z,19.80
2022-11-22T13:01:26.259Z,20.43
2022-11-22T13:04:11.129Z,20.97
2022-11-22T13:07:05.246Z,21.13
2022-11-22T13:09:33.375Z,21.20
2022-11-22T13:12:11.338Z,21.33
2022-11-22T13:14:49.953Z,20.63
2022-11-22T13:17:17.190Z,21.30
2022-11-22T13:19:47.193Z,21.37
2022-11-22T13:22:25.431Z,21.20
2022-11-22T13:24:54.497Z,20.47
2022-11-22T13:27:20.749Z,21.00
2022-11-22T13:29:47.613Z,21.73
2022-11-22T13:32:13.813Z,22.60
2022-11-22T13:34:59.505Z,20.97
2022-11-22T13:37:26.953Z,21.33
2022-11-22T13:39:53.253Z,21.07
2022-11-22T13:42:23.827Z,22.83
2022-11-22T13:44:51.458Z,21.73
2022-11-22T13:47:23.572Z,22.80
2022-11-22T13:49:50.885Z,21.70
2022-11-22T13:52:17.109Z,20.90
2022-11-22T13:54:43.401Z,20.97
2022-11-22T13:57:28.469Z,21.03
2022-11-22T14:00:13.839Z,20.70
2022-11-22T14:02:40.767Z,21.27
2022-11-22T14:05:25.901Z,20.63
2022-11-22T14:07:52.912Z,21.90
2022-11-22T14:10:25.723Z,21.20
2022-11-22T14:12:52.483Z,20.87
2022-11-22T14:15:37.267Z,21.37
2022-11-22T14:18:06.351Z,20.90
2022-11-22T14:20:51.202Z,21.17
2022-11-22T14:23:37.923Z,20.47
2022-11-22T14:26:16.690Z,20.47
2022-11-22T14:29:02.233Z,21.27
2022-11-22T14:31:29.650Z,19.23
2022-11-22T14:34:15.311Z,19.93
2022-11-22T14:36:41.581Z,19.40
2022-11-22T14:39:32.259Z,20.90
2022-11-22T14:41:59.855Z,20.13
2022-11-22T14:44:31.349Z,20.83
2022-11-22T14:47:03.013Z,20.33
2022-11-22T14:49:32.462Z,21.33
2022-11-22T14:51:59.681Z,19.63
2022-11-22T14:54:30.860Z,19.90
2022-11-22T14:57:03.954Z,21.37
2022-11-22T14:59:30.781Z,20.17
2022-11-22T15:02:15.990Z,20.93
2022-11-22T15:09:14.161Z,20.37
2022-11-22T15:09:15.370Z,21.23
2022-11-22T15:10:33.741Z,20.30
2022-11-22T15:12:59.977Z,19.90
2022-11-22T15:58:12.746Z,20.73
2022-11-22T16:00:43.530Z,22.27
2022-11-22T16:03:21.395Z,21.97
2022-11-22T16:06:06.304Z,20.40
2022-11-22T16:08:35.385Z,20.70
2022-11-22T16:11:03.399Z,21.23
2022-11-22T16:13:33.192Z,21.00
2022-11-22T16:16:11.635Z,21.27
2022-11-22T16:18:41.873Z,20.87
2022-11-22T16:21:11.339Z,22.10
2022-11-22T16:23:41.043Z,20.97
2022-11-22T16:26:25.831Z,21.97
2022-11-22T16:28:53.274Z,21.60
2022-11-22T16:31:24.038Z,22.20
2022-11-22T16:33:51.040Z,22.33
2022-11-22T16:36:18.132Z,21.40
2022-11-22T16:38:44.697Z,22.80
2022-11-22T16:41:13.007Z,22.97
2022-11-22T16:43:39.224Z,21.83
2022-11-22T16:46:05.652Z,22.10
2022-11-22T16:48:33.285Z,22.97
2022-11-22T16:51:08.404Z,23.10
2022-11-22T16:53:37.502Z,22.03
2022-11-22T16:56:03.823Z,21.60
2022-11-22T16:58:31.136Z,22.93
2022-11-22T17:00:57.501Z,22.47
2022-11-22T17:03:26.507Z,21.80
2022-11-22T17:05:52.797Z,24.47
2022-11-22T17:08:19.449Z,23.07
2022-11-22T17:10:52.596Z,22.83
2022-11-22T17:13:20.446Z,23.67
2022-11-22T17:15:47.177Z,23.13
2022-11-22T17:18:13.563Z,24.03
2022-11-22T17:20:39.804Z,23.57
2022-11-22T17:23:07.096Z,21.70
2022-11-22T17:25:33.301Z,23.20
2022-11-22T17:27:59.558Z,23.47
2022-11-22T17:30:25.826Z,23.47
2022-11-22T17:32:52.218Z,22.20
2022-11-22T17:35:18.480Z,23.47
2022-11-22T17:37:44.681Z,23.37
2022-11-22T17:40:11.109Z,23.17
2022-11-22T17:42:41.189Z,23.10
2022-11-22T17:45:07.766Z,22.37
2022-11-22T17:47:35.611Z,22.77
2022-11-22T17:50:01.839Z,23.63
2022-11-22T17:52:28.045Z,23.47
2022-11-22T17:54:54.308Z,22.60
2022-11-22T17:57:21.874Z,24.43
2022-11-22T17:59:48.193Z,24.50
2022-11-22T18:02:14.525Z,24.00
2022-11-22T18:04:49.807Z,25.63
2022-11-22T18:07:16.084Z,24.50
2022-11-22T18:09:42.434Z,23.57
2022-11-22T18:12:08.655Z,23.87
2022-11-22T18:14:34.860Z,23.63
2022-11-22T18:17:01.335Z,23.97
2022-11-22T18:19:27.561Z,25.20
2022-11-22T18:21:53.851Z,25.00
2022-11-22T18:24:20.123Z,23.37
2022-11-22T18:26:46.757Z,25.70
2022-11-22T18:32:00.535Z,23.73
2022-11-22T18:34:29.565Z,24.63
2022-11-22T18:37:00.699Z,23.87
2022-11-22T18:39:31.339Z,24.70
2022-11-22T18:41:57.916Z,25.33
2022-11-22T18:44:24.199Z,25.97
2022-11-22T18:46:50.498Z,24.50
2022-11-22T18:49:16.726Z,26.10
2022-11-22T18:51:43.053Z,24.47
2022-11-22T18:54:14.259Z,26.30
2022-11-22T18:56:41.025Z,23.47
2022-11-22T18:59:07.967Z,24.17
2022-11-22T19:01:37.367Z,24.67
2022-11-22T19:04:04.034Z,25.43
2022-11-22T19:06:30.708Z,24.73
2022-11-22T19:08:57.331Z,24.83
2022-11-22T19:11:23.565Z,24.20
2022-11-22T19:13:53.027Z,25.23
2022-11-22T19:16:21.708Z,24.67
2022-11-22T19:18:49.158Z,24.00
2022-11-22T19:21:16.830Z,24.87
2022-11-22T19:23:43.461Z,24.73
2022-11-22T19:26:11.785Z,25.37
2022-11-22T19:28:38.007Z,24.57
2022-11-22T19:31:07.010Z,24.33
2022-11-22T19:33:33.942Z,24.30
2022-11-22T19:36:00.999Z,24.83
2022-11-22T19:38:27.375Z,24.97
2022-11-22T19:40:53.870Z,23.97
2022-11-22T19:43:20.170Z,25.30
2022-11-22T19:45:46.979Z,24.73
2022-11-22T19:48:13.875Z,24.53
2022-11-22T19:50:40.726Z,24.30
2022-11-22T19:53:07.335Z,26.33
2022-11-22T19:55:34.011Z,24.20
2022-11-22T19:58:00.660Z,23.70
2022-11-22T20:00:27.445Z,24.43
2022-11-22T20:02:53.731Z,24.60
2022-11-22T20:05:20.286Z,24.67
2022-11-22T20:07:46.547Z,24.83
2022-11-22T20:10:12.868Z,24.03
2022-11-22T20:12:39.084Z,24.57
2022-11-22T20:15:06.136Z,25.13
2022-11-22T20:17:32.611Z,23.37
2022-11-22T20:19:58.959Z,23.67
2022-11-22T20:22:25.241Z,24.13
2022-11-22T20:24:51.455Z,23.70
2022-11-22T20:27:24.393Z,24.47
2022-11-22T20:29:50.980Z,25.03
2022-11-22T20:32:17.346Z,24.00
2022-11-22T20:34:43.565Z,24.13
2022-11-22T20:37:10.805Z,24.47
2022-11-22T20:39:37.486Z,23.37
2022-11-22T20:42:32.453Z,24.40
2022-11-22T20:44:50.291Z,23.70
2022-11-22T20:47:16.516Z,24.63
2022-11-22T20:49:45.674Z,24.73
2022-11-22T20:52:12.141Z,24.37
2022-11-22T20:54:38.517Z,25.63
2022-11-22T20:57:04.749Z,24.87
2022-11-22T20:59:30.966Z,24.20
2022-11-22T21:01:57.219Z,25.17
2022-11-22T21:04:23.589Z,24.67
2022-11-22T21:06:49.805Z,23.17
2022-11-22T21:09:16.181Z,24.70
2022-11-22T21:11:45.284Z,23.70
2022-11-22T21:14:11.977Z,24.90
2022-11-22T21:16:38.336Z,23.33
2022-11-22T21:19:05.062Z,23.90
2022-11-22T21:21:32.129Z,25.23
2022-11-22T21:23:59.910Z,24.27
2022-11-22T21:26:26.388Z,24.20
2022-11-22T21:28:53.100Z,24.87
2022-11-22T21:31:19.903Z,24.70
2022-11-22T21:33:46.574Z,24.50
2022-11-22T21:36:12.880Z,24.77
2022-11-22T21:38:39.097Z,25.03
2022-11-22T21:41:32.288Z,25.73
2022-11-22T21:43:54.110Z,23.73
2022-11-22T21:46:20.372Z,23.73
2022-11-22T21:48:47.829Z,24.43
2022-11-22T21:51:14.029Z,23.47
2022-11-22T21:53:40.247Z,24.70
2022-11-22T21:56:07.014Z,23.80
2022-11-22T21:58:33.241Z,24.97
2022-11-22T22:01:08.306Z,23.60
2022-11-22T22:03:40.386Z,23.60
2022-11-22T22:06:06.795Z,24.57
2022-11-22T22:08:33.236Z,23.87
2022-11-22T22:11:00.914Z,24.07
2022-11-22T22:13:28.761Z,24.83
2022-11-22T22:15:55.551Z,25.73
2022-11-22T22:18:21.778Z,25.23
2022-11-22T22:20:47.998Z,25.20
2022-11-22T22:23:15.543Z,26.13
2022-11-22T22:25:41.742Z,25.00
2022-11-22T22:28:07.965Z,23.43
2022-11-22T22:30:34.195Z,26.13
2022-11-22T22:33:00.490Z,24.60
2022-11-22T22:35:26.748Z,25.47
2022-11-22T22:37:53.009Z,25.03
2022-11-22T22:40:19.624Z,25.20
2022-11-22T22:42:45.850Z,24.20
2022-11-22T22:45:12.088Z,24.10
2022-11-22T22:47:41.336Z,25.63
2022-11-22T22:50:10.084Z,25.70
2022-11-22T22:52:36.287Z,23.60
2022-11-22T22:55:02.501Z,24.80
2022-11-22T22:57:28.807Z,23.87
2022-11-22T22:59:55.022Z,24.63
2022-11-22T23:02:21.249Z,24.80
2022-11-22T23:04:52.527Z,25.40
2022-11-22T23:07:18.778Z,24.57
2022-11-22T23:09:45.333Z,23.87
2022-11-22T23:12:11.590Z,24.10
2022-11-22T23:14:39.623Z,25.80
2022-11-22T23:17:06.669Z,24.77
2022-11-22T23:19:33.183Z,25.23
2022-11-22T23:21:59.627Z,24.37
2022-11-22T23:24:25.980Z,25.40
2022-11-22T23:26:52.283Z,25.47
2022-11-22T23:29:18.517Z,25.40
2022-11-22T23:31:44.738Z,23.77
2022-11-22T23:34:11.477Z,25.93
2022-11-22T23:36:41.001Z,25.67
2022-11-22T23:39:07.698Z,24.63
2022-11-22T23:41:33.913Z,24.40
2022-11-22T23:44:00.133Z,24.10
2022-11-22T23:46:29.147Z,24.63
2022-11-22T23:48:56.563Z,25.77
2022-11-22T23:51:23.194Z,25.13
2022-11-22T23:53:53.298Z,25.63
2022-11-22T23:56:22.032Z,24.97
2022-11-22T23:58:48.486Z,24.20
